sensor_id;sensor_type;location;lat;lon;timestamp;P1;durP1;ratioP1;P2;durP2;ratioP2
49946;SDS011;35839;48.662;13.300;2024-02-21T00:00:41;17.80;;;6.80;;
49946;SDS011;35839;48.662;13.300;2024-02-21T00:03:06;11.17;;;6.60;;
49946;SDS011;35839;48.662;13.300;2024-02-21T00:05:32;11.13;;;5.97;;
49946;SDS011;35839;48.662;13.300;2024-02-21T00:07:58;18.80;;;7.27;;
49946;SDS011;35839;48.662;13.300;2024-02-21T00:10:24;13.07;;;6.07;;
49946;SDS011;35839;48.662;13.300;2024-02-21T00:12:50;12.27;;;5.07;;
49946;SDS011;35839;48.662;13.300;2024-02-21T00:15:16;15.60;;;5.47;;
49946;SDS011;35839;48.662;13.300;2024-02-21T00:17:42;14.50;;;4.33;;
49946;SDS011;35839;48.662;13.300;2024-02-21T00:20:09;16.37;;;5.57;;
49946;SDS011;35839;48.662;13.300;2024-02-21T00:22:35;10.00;;;5.20;;
49946;SDS011;35839;48.662;13.300;2024-02-21T00:25:00;13.53;;;5.73;;
49946;SDS011;35839;48.662;13.300;2024-02-21T00:27:26;11.47;;;4.57;;
49946;SDS011;35839;48.662;13.300;2024-02-21T00:29:51;15.00;;;5.37;;
49946;SDS011;35839;48.662;13.300;2024-02-21T00:32:16;12.03;;;6.33;;
49946;SDS011;35839;48.662;13.300;2024-02-21T00:34:42;14.97;;;6.13;;
49946;SDS011;35839;48.662;13.300;2024-02-21T00:37:07;23.90;;;9.30;;
49946;SDS011;35839;48.662;13.300;2024-02-21T00:39:33;25.50;;;9.93;;
49946;SDS011;35839;48.662;13.300;2024-02-21T00:41:58;15.80;;;6.90;;
49946;SDS011;35839;48.662;13.300;2024-02-21T00:44:23;11.53;;;5.57;;
49946;SDS011;35839;48.662;13.300;2024-02-21T00:46:49;13.20;;;6.23;;
49946;SDS011;35839;48.662;13.300;2024-02-21T00:49:14;14.83;;;5.50;;
49946;SDS011;35839;48.662;13.300;2024-02-21T00:51:40;15.57;;;6.20;;
49946;SDS011;35839;48.662;13.300;2024-02-21T00:54:05;16.90;;;6.90;;
49946;SDS011;35839;48.662;13.300;2024-02-21T00:56:31;15.73;;;6.63;;
49946;SDS011;35839;48.662;13.300;2024-02-21T00:58:56;17.43;;;5.97;;
49946;SDS011;35839;48.662;13.300;2024-02-21T01:01:22;12.67;;;5.43;;
49946;SDS011;35839;48.662;13.300;2024-02-21T01:03:49;10.93;;;4.57;;
49946;SDS011;35839;48.662;13.300;2024-02-21T01:06:14;12.80;;;5.77;;
49946;SDS011;35839;48.662;13.300;2024-02-21T01:08:40;13.27;;;5.47;;
49946;SDS011;35839;48.662;13.300;2024-02-21T01:11:05;9.93;;;5.00;;
49946;SDS011;35839;48.662;13.300;2024-02-21T01:13:30;10.57;;;4.93;;
49946;SDS011;35839;48.662;13.300;2024-02-21T01:15:56;12.67;;;4.80;;
49946;SDS011;35839;48.662;13.300;2024-02-21T01:18:21;16.50;;;5.57;;
49946;SDS011;35839;48.662;13.300;2024-02-21T01:20:46;11.90;;;5.10;;
49946;SDS011;35839;48.662;13.300;2024-02-21T01:23:12;16.00;;;5.37;;
49946;SDS011;35839;48.662;13.300;2024-02-21T01:25:37;8.03;;;4.43;;
49946;SDS011;35839;48.662;13.300;2024-02-21T01:28:03;11.93;;;5.20;;
49946;SDS011;35839;48.662;13.300;2024-02-21T01:30:28;12.47;;;6.27;;
49946;SDS011;35839;48.662;13.300;2024-02-21T01:32:53;11.50;;;4.87;;
49946;SDS011;35839;48.662;13.300;2024-02-21T01:35:19;10.50;;;6.07;;
49946;SDS011;35839;48.662;13.300;2024-02-21T01:37:44;16.50;;;5.60;;
49946;SDS011;35839;48.662;13.300;2024-02-21T01:40:10;13.80;;;5.93;;
49946;SDS011;35839;48.662;13.300;2024-02-21T01:42:39;12.20;;;5.53;;
49946;SDS011;35839;48.662;13.300;2024-02-21T01:47:31;14.83;;;5.03;;
49946;SDS011;35839;48.662;13.300;2024-02-21T01:49:56;8.17;;;4.77;;
49946;SDS011;35839;48.662;13.300;2024-02-21T01:52:22;13.53;;;4.77;;
49946;SDS011;35839;48.662;13.300;2024-02-21T01:54:48;9.30;;;5.20;;
49946;SDS011;35839;48.662;13.300;2024-02-21T01:57:13;10.07;;;4.47;;
49946;SDS011;35839;48.662;13.300;2024-02-21T01:59:39;7.60;;;4.37;;
49946;SDS011;35839;48.662;13.300;2024-02-21T02:02:05;8.17;;;3.93;;
49946;SDS011;35839;48.662;13.300;2024-02-21T02:04:31;9.17;;;4.23;;
49946;SDS011;35839;48.662;13.300;2024-02-21T02:06:56;10.80;;;4.70;;
49946;SDS011;35839;48.662;13.300;2024-02-21T02:09:24;8.90;;;4.37;;
49946;SDS011;35839;48.662;13.300;2024-02-21T02:11:50;11.70;;;4.40;;
49946;SDS011;35839;48.662;13.300;2024-02-21T02:14:16;11.13;;;4.23;;
49946;SDS011;35839;48.662;13.300;2024-02-21T02:16:41;13.07;;;5.33;;
49946;SDS011;35839;48.662;13.300;2024-02-21T02:19:06;14.83;;;5.10;;
49946;SDS011;35839;48.662;13.300;2024-02-21T02:21:32;12.70;;;4.77;;
49946;SDS011;35839;48.662;13.300;2024-02-21T02:24:02;8.73;;;3.70;;
49946;SDS011;35839;48.662;13.300;2024-02-21T02:26:29;11.97;;;5.20;;
49946;SDS011;35839;48.662;13.300;2024-02-21T02:28:54;10.43;;;4.50;;
49946;SDS011;35839;48.662;13.300;2024-02-21T02:31:19;8.87;;;4.23;;
49946;SDS011;35839;48.662;13.300;2024-02-21T02:33:45;11.80;;;5.60;;
49946;SDS011;35839;48.662;13.300;2024-02-21T02:36:10;14.00;;;5.13;;
49946;SDS011;35839;48.662;13.300;2024-02-21T02:38:36;12.00;;;5.27;;
49946;SDS011;35839;48.662;13.300;2024-02-21T02:41:02;10.00;;;4.90;;
49946;SDS011;35839;48.662;13.300;2024-02-21T02:43:27;15.90;;;5.20;;
49946;SDS011;35839;48.662;13.300;2024-02-21T02:45:52;11.10;;;4.80;;
49946;SDS011;35839;48.662;13.300;2024-02-21T02:48:18;11.40;;;4.77;;
49946;SDS011;35839;48.662;13.300;2024-02-21T02:50:44;10.30;;;4.57;;
49946;SDS011;35839;48.662;13.300;2024-02-21T02:53:10;11.27;;;4.90;;
49946;SDS011;35839;48.662;13.300;2024-02-21T02:55:36;12.63;;;4.73;;
49946;SDS011;35839;48.662;13.300;2024-02-21T02:58:01;9.50;;;4.97;;
49946;SDS011;35839;48.662;13.300;2024-02-21T03:00:27;13.07;;;5.40;;
49946;SDS011;35839;48.662;13.300;2024-02-21T03:02:52;9.57;;;4.97;;
49946;SDS011;35839;48.662;13.300;2024-02-21T03:05:21;12.67;;;5.47;;
49946;SDS011;35839;48.662;13.300;2024-02-21T03:07:47;14.30;;;4.90;;
49946;SDS011;35839;48.662;13.300;2024-02-21T03:10:14;13.17;;;5.97;;
49946;SDS011;35839;48.662;13.300;2024-02-21T03:12:41;8.80;;;4.60;;
49946;SDS011;35839;48.662;13.300;2024-02-21T03:15:07;17.20;;;5.20;;
49946;SDS011;35839;48.662;13.300;2024-02-21T03:17:33;13.50;;;5.10;;
49946;SDS011;35839;48.662;13.300;2024-02-21T03:20:02;9.75;;;4.72;;
49946;SDS011;35839;48.662;13.300;2024-02-21T03:22:34;10.97;;;4.90;;
49946;SDS011;35839;48.662;13.300;2024-02-21T03:24:59;10.00;;;4.93;;
49946;SDS011;35839;48.662;13.300;2024-02-21T03:27:25;9.53;;;4.80;;
49946;SDS011;35839;48.662;13.300;2024-02-21T03:29:50;8.17;;;4.60;;
49946;SDS011;35839;48.662;13.300;2024-02-21T03:32:15;8.63;;;4.40;;
49946;SDS011;35839;48.662;13.300;2024-02-21T03:34:41;10.53;;;4.43;;
49946;SDS011;35839;48.662;13.300;2024-02-21T03:37:06;12.77;;;4.73;;
49946;SDS011;35839;48.662;13.300;2024-02-21T03:39:32;9.57;;;4.90;;
49946;SDS011;35839;48.662;13.300;2024-02-21T03:41:57;16.80;;;7.33;;
49946;SDS011;35839;48.662;13.300;2024-02-21T03:44:25;20.07;;;10.03;;
49946;SDS011;35839;48.662;13.300;2024-02-21T03:46:50;13.13;;;6.83;;
49946;SDS011;35839;48.662;13.300;2024-02-21T03:49:16;11.07;;;5.17;;
49946;SDS011;35839;48.662;13.300;2024-02-21T03:51:41;11.50;;;4.87;;
49946;SDS011;35839;48.662;13.300;2024-02-21T03:54:07;9.33;;;4.07;;
49946;SDS011;35839;48.662;13.300;2024-02-21T03:56:36;10.73;;;3.93;;
49946;SDS011;35839;48.662;13.300;2024-02-21T03:59:02;12.73;;;4.78;;
49946;SDS011;35839;48.662;13.300;2024-02-21T04:01:27;8.37;;;4.73;;
49946;SDS011;35839;48.662;13.300;2024-02-21T04:03:53;11.07;;;4.43;;
49946;SDS011;35839;48.662;13.300;2024-02-21T04:06:18;10.50;;;4.63;;
49946;SDS011;35839;48.662;13.300;2024-02-21T04:08:45;12.60;;;4.63;;
49946;SDS011;35839;48.662;13.300;2024-02-21T04:11:10;12.83;;;5.00;;
49946;SDS011;35839;48.662;13.300;2024-02-21T04:13:35;12.70;;;5.00;;
49946;SDS011;35839;48.662;13.300;2024-02-21T04:16:00;15.20;;;4.63;;
49946;SDS011;35839;48.662;13.300;2024-02-21T04:18:26;7.97;;;3.23;;
49946;SDS011;35839;48.662;13.300;2024-02-21T04:20:51;8.23;;;3.73;;
49946;SDS011;35839;48.662;13.300;2024-02-21T04:23:17;9.30;;;4.60;;
49946;SDS011;35839;48.662;13.300;2024-02-21T04:25:43;10.10;;;4.13;;
49946;SDS011;35839;48.662;13.300;2024-02-21T04:28:08;9.47;;;4.50;;
49946;SDS011;35839;48.662;13.300;2024-02-21T04:30:34;9.47;;;4.10;;
49946;SDS011;35839;48.662;13.300;2024-02-21T04:33:00;10.87;;;4.37;;
49946;SDS011;35839;48.662;13.300;2024-02-21T04:35:25;7.53;;;4.60;;
49946;SDS011;35839;48.662;13.300;2024-02-21T04:37:51;7.30;;;4.30;;
49946;SDS011;35839;48.662;13.300;2024-02-21T04:40:16;9.73;;;4.43;;
49946;SDS011;35839;48.662;13.300;2024-02-21T04:42:42;10.40;;;4.87;;
49946;SDS011;35839;48.662;13.300;2024-02-21T04:45:07;11.47;;;5.17;;
49946;SDS011;35839;48.662;13.300;2024-02-21T04:47:33;14.80;;;6.00;;
49946;SDS011;35839;48.662;13.300;2024-02-21T04:49:59;11.10;;;4.80;;
49946;SDS011;35839;48.662;13.300;2024-02-21T04:52:25;13.60;;;5.00;;
49946;SDS011;35839;48.662;13.300;2024-02-21T04:54:50;13.23;;;5.37;;
49946;SDS011;35839;48.662;13.300;2024-02-21T04:57:16;11.90;;;5.10;;
49946;SDS011;35839;48.662;13.300;2024-02-21T04:59:45;11.37;;;4.40;;
49946;SDS011;35839;48.662;13.300;2024-02-21T05:02:12;8.23;;;4.27;;
49946;SDS011;35839;48.662;13.300;2024-02-21T05:04:38;9.43;;;3.87;;
49946;SDS011;35839;48.662;13.300;2024-02-21T05:07:04;12.27;;;4.20;;
49946;SDS011;35839;48.662;13.300;2024-02-21T05:09:30;8.77;;;4.70;;
49946;SDS011;35839;48.662;13.300;2024-02-21T05:11:55;14.63;;;4.00;;
49946;SDS011;35839;48.662;13.300;2024-02-21T05:14:21;8.20;;;4.00;;
49946;SDS011;35839;48.662;13.300;2024-02-21T05:16:46;9.20;;;4.17;;
49946;SDS011;35839;48.662;13.300;2024-02-21T05:19:12;6.93;;;3.90;;
49946;SDS011;35839;48.662;13.300;2024-02-21T05:21:37;13.87;;;4.50;;
49946;SDS011;35839;48.662;13.300;2024-02-21T05:24:02;13.20;;;4.13;;
49946;SDS011;35839;48.662;13.300;2024-02-21T05:26:28;10.07;;;3.83;;
49946;SDS011;35839;48.662;13.300;2024-02-21T05:28:54;10.60;;;4.47;;
49946;SDS011;35839;48.662;13.300;2024-02-21T05:31:19;10.70;;;3.70;;
49946;SDS011;35839;48.662;13.300;2024-02-21T05:33:46;9.20;;;3.70;;
49946;SDS011;35839;48.662;13.300;2024-02-21T05:36:12;7.27;;;3.57;;
49946;SDS011;35839;48.662;13.300;2024-02-21T05:38:38;7.37;;;4.03;;
49946;SDS011;35839;48.662;13.300;2024-02-21T05:41:03;11.40;;;4.07;;
49946;SDS011;35839;48.662;13.300;2024-02-21T05:43:29;11.63;;;4.37;;
49946;SDS011;35839;48.662;13.300;2024-02-21T05:45:54;8.57;;;4.47;;
49946;SDS011;35839;48.662;13.300;2024-02-21T05:48:19;15.93;;;5.60;;
49946;SDS011;35839;48.662;13.300;2024-02-21T05:50:45;15.00;;;5.93;;
49946;SDS011;35839;48.662;13.300;2024-02-21T05:53:10;7.17;;;4.00;;
49946;SDS011;35839;48.662;13.300;2024-02-21T05:55:36;7.03;;;3.97;;
49946;SDS011;35839;48.662;13.300;2024-02-21T05:58:03;7.97;;;3.67;;
49946;SDS011;35839;48.662;13.300;2024-02-21T06:00:28;11.37;;;4.07;;
49946;SDS011;35839;48.662;13.300;2024-02-21T06:02:54;12.33;;;4.50;;
49946;SDS011;35839;48.662;13.300;2024-02-21T06:05:20;8.33;;;2.90;;
49946;SDS011;35839;48.662;13.300;2024-02-21T06:07:45;7.47;;;3.77;;
49946;SDS011;35839;48.662;13.300;2024-02-21T06:10:10;9.37;;;3.93;;
49946;SDS011;35839;48.662;13.300;2024-02-21T06:12:36;15.83;;;5.33;;
49946;SDS011;35839;48.662;13.300;2024-02-21T06:15:01;13.07;;;4.97;;
49946;SDS011;35839;48.662;13.300;2024-02-21T06:17:27;10.97;;;4.70;;
49946;SDS011;35839;48.662;13.300;2024-02-21T06:19:54;11.20;;;5.20;;
49946;SDS011;35839;48.662;13.300;2024-02-21T06:22:19;10.17;;;4.77;;
49946;SDS011;35839;48.662;13.300;2024-02-21T06:24:46;11.43;;;5.17;;
49946;SDS011;35839;48.662;13.300;2024-02-21T06:27:11;10.37;;;5.10;;
49946;SDS011;35839;48.662;13.300;2024-02-21T06:29:36;15.10;;;6.23;;
49946;SDS011;35839;48.662;13.300;2024-02-21T06:32:02;14.83;;;5.23;;
49946;SDS011;35839;48.662;13.300;2024-02-21T06:34:28;9.07;;;4.73;;
49946;SDS011;35839;48.662;13.300;2024-02-21T06:36:54;11.90;;;5.50;;
49946;SDS011;35839;48.662;13.300;2024-02-21T06:39:19;9.03;;;4.97;;
49946;SDS011;35839;48.662;13.300;2024-02-21T06:41:44;8.70;;;4.23;;
49946;SDS011;35839;48.662;13.300;2024-02-21T06:44:10;11.90;;;4.70;;
49946;SDS011;35839;48.662;13.300;2024-02-21T06:46:35;11.87;;;4.70;;
49946;SDS011;35839;48.662;13.300;2024-02-21T06:49:01;7.63;;;3.60;;
49946;SDS011;35839;48.662;13.300;2024-02-21T06:51:30;9.00;;;3.97;;
49946;SDS011;35839;48.662;13.300;2024-02-21T06:53:55;7.53;;;3.90;;
49946;SDS011;35839;48.662;13.300;2024-02-21T06:56:22;12.77;;;4.60;;
49946;SDS011;35839;48.662;13.300;2024-02-21T06:58:53;14.80;;;5.50;;
49946;SDS011;35839;48.662;13.300;2024-02-21T07:01:19;12.10;;;4.60;;
49946;SDS011;35839;48.662;13.300;2024-02-21T07:03:45;11.93;;;4.67;;
49946;SDS011;35839;48.662;13.300;2024-02-21T07:06:10;12.47;;;5.00;;
49946;SDS011;35839;48.662;13.300;2024-02-21T07:08:36;9.17;;;4.07;;
49946;SDS011;35839;48.662;13.300;2024-02-21T07:11:01;10.87;;;5.07;;
49946;SDS011;35839;48.662;13.300;2024-02-21T07:13:26;6.33;;;3.20;;
49946;SDS011;35839;48.662;13.300;2024-02-21T07:15:52;6.33;;;3.80;;
49946;SDS011;35839;48.662;13.300;2024-02-21T07:18:17;7.50;;;4.23;;
49946;SDS011;35839;48.662;13.300;2024-02-21T07:20:43;8.17;;;4.30;;
49946;SDS011;35839;48.662;13.300;2024-02-21T07:23:08;8.87;;;4.03;;
49946;SDS011;35839;48.662;13.300;2024-02-21T07:25:33;6.70;;;3.80;;
49946;SDS011;35839;48.662;13.300;2024-02-21T07:27:59;7.67;;;4.30;;
49946;SDS011;35839;48.662;13.300;2024-02-21T07:30:24;7.40;;;4.00;;
49946;SDS011;35839;48.662;13.300;2024-02-21T07:32:50;9.13;;;4.30;;
49946;SDS011;35839;48.662;13.300;2024-02-21T07:35:17;9.13;;;4.43;;
49946;SDS011;35839;48.662;13.300;2024-02-21T07:37:42;9.87;;;4.20;;
49946;SDS011;35839;48.662;13.300;2024-02-21T07:40:14;18.27;;;5.20;;
49946;SDS011;35839;48.662;13.300;2024-02-21T07:42:41;7.90;;;3.97;;
49946;SDS011;35839;48.662;13.300;2024-02-21T07:45:09;14.00;;;4.60;;
49946;SDS011;35839;48.662;13.300;2024-02-21T07:47:36;12.48;;;3.95;;
49946;SDS011;35839;48.662;13.300;2024-02-21T07:50:04;12.33;;;5.90;;
49946;SDS011;35839;48.662;13.300;2024-02-21T07:52:30;11.63;;;4.53;;
49946;SDS011;35839;48.662;13.300;2024-02-21T07:54:56;7.47;;;3.40;;
49946;SDS011;35839;48.662;13.300;2024-02-21T07:57:21;13.13;;;4.07;;
49946;SDS011;35839;48.662;13.300;2024-02-21T07:59:47;10.53;;;3.80;;
49946;SDS011;35839;48.662;13.300;2024-02-21T08:02:13;10.10;;;3.87;;
49946;SDS011;35839;48.662;13.300;2024-02-21T08:04:39;9.13;;;3.67;;
49946;SDS011;35839;48.662;13.300;2024-02-21T08:07:04;9.13;;;3.53;;
49946;SDS011;35839;48.662;13.300;2024-02-21T08:09:30;7.90;;;3.00;;
49946;SDS011;35839;48.662;13.300;2024-02-21T08:11:55;7.20;;;3.40;;
49946;SDS011;35839;48.662;13.300;2024-02-21T08:14:21;8.17;;;3.50;;
49946;SDS011;35839;48.662;13.300;2024-02-21T08:16:47;6.57;;;3.27;;
49946;SDS011;35839;48.662;13.300;2024-02-21T08:19:13;10.90;;;3.80;;
49946;SDS011;35839;48.662;13.300;2024-02-21T08:21:39;10.27;;;3.83;;
49946;SDS011;35839;48.662;13.300;2024-02-21T08:24:04;8.63;;;3.60;;
49946;SDS011;35839;48.662;13.300;2024-02-21T08:26:30;8.17;;;3.73;;
49946;SDS011;35839;48.662;13.300;2024-02-21T08:28:56;5.43;;;3.07;;
49946;SDS011;35839;48.662;13.300;2024-02-21T08:31:25;7.20;;;2.83;;
49946;SDS011;35839;48.662;13.300;2024-02-21T08:33:59;10.17;;;3.90;;
49946;SDS011;35839;48.662;13.300;2024-02-21T08:36:37;11.90;;;3.37;;
49946;SDS011;35839;48.662;13.300;2024-02-21T08:39:04;8.43;;;3.03;;
49946;SDS011;35839;48.662;13.300;2024-02-21T08:41:33;12.20;;;3.17;;
49946;SDS011;35839;48.662;13.300;2024-02-21T08:44:03;10.13;;;3.20;;
49946;SDS011;35839;48.662;13.300;2024-02-21T08:46:28;8.80;;;3.07;;
49946;SDS011;35839;48.662;13.300;2024-02-21T08:48:54;8.80;;;3.17;;
49946;SDS011;35839;48.662;13.300;2024-02-21T08:51:19;6.13;;;2.70;;
49946;SDS011;35839;48.662;13.300;2024-02-21T08:53:45;7.03;;;3.33;;
49946;SDS011;35839;48.662;13.300;2024-02-21T08:56:11;7.40;;;2.93;;
49946;SDS011;35839;48.662;13.300;2024-02-21T08:58:37;6.77;;;2.73;;
49946;SDS011;35839;48.662;13.300;2024-02-21T09:01:03;6.70;;;2.70;;
49946;SDS011;35839;48.662;13.300;2024-02-21T09:03:33;8.70;;;4.37;;
49946;SDS011;35839;48.662;13.300;2024-02-21T09:05:59;6.07;;;2.58;;
49946;SDS011;35839;48.662;13.300;2024-02-21T09:08:25;6.77;;;3.43;;
49946;SDS011;35839;48.662;13.300;2024-02-21T09:10:51;5.23;;;2.80;;
49946;SDS011;35839;48.662;13.300;2024-02-21T09:13:17;4.77;;;2.20;;
49946;SDS011;35839;48.662;13.300;2024-02-21T09:15:42;6.37;;;2.80;;
49946;SDS011;35839;48.662;13.300;2024-02-21T09:18:08;12.97;;;5.97;;
49946;SDS011;35839;48.662;13.300;2024-02-21T09:20:33;8.47;;;3.83;;
49946;SDS011;35839;48.662;13.300;2024-02-21T09:22:59;8.23;;;3.03;;
49946;SDS011;35839;48.662;13.300;2024-02-21T09:25:24;5.53;;;2.70;;
49946;SDS011;35839;48.662;13.300;2024-02-21T09:27:51;6.90;;;4.63;;
49946;SDS011;35839;48.662;13.300;2024-02-21T09:30:18;9.77;;;3.33;;
49946;SDS011;35839;48.662;13.300;2024-02-21T09:32:44;8.57;;;3.43;;
49946;SDS011;35839;48.662;13.300;2024-02-21T09:35:09;8.67;;;3.10;;
49946;SDS011;35839;48.662;13.300;2024-02-21T09:37:35;5.47;;;2.30;;
49946;SDS011;35839;48.662;13.300;2024-02-21T09:40:01;8.87;;;2.60;;
49946;SDS011;35839;48.662;13.300;2024-02-21T09:42:36;8.43;;;2.60;;
49946;SDS011;35839;48.662;13.300;2024-02-21T09:45:04;5.83;;;3.00;;
49946;SDS011;35839;48.662;13.300;2024-02-21T09:48:19;7.53;;;2.50;;
49946;SDS011;35839;48.662;13.300;2024-02-21T09:50:46;5.80;;;2.77;;
49946;SDS011;35839;48.662;13.300;2024-02-21T09:53:12;6.50;;;2.30;;
49946;SDS011;35839;48.662;13.300;2024-02-21T09:55:41;9.18;;;2.83;;
49946;SDS011;35839;48.662;13.300;2024-02-21T09:58:09;4.17;;;2.30;;
49946;SDS011;35839;48.662;13.300;2024-02-21T10:00:36;7.80;;;2.60;;
49946;SDS011;35839;48.662;13.300;2024-02-21T10:03:02;7.20;;;3.00;;
49946;SDS011;35839;48.662;13.300;2024-02-21T10:05:34;8.77;;;2.40;;
49946;SDS011;35839;48.662;13.300;2024-02-21T10:08:00;12.60;;;2.87;;
49946;SDS011;35839;48.662;13.300;2024-02-21T10:10:26;8.03;;;2.57;;
49946;SDS011;35839;48.662;13.300;2024-02-21T10:12:52;5.97;;;2.50;;
49946;SDS011;35839;48.662;13.300;2024-02-21T10:15:21;6.47;;;1.92;;
49946;SDS011;35839;48.662;13.300;2024-02-21T10:17:58;6.53;;;2.67;;
49946;SDS011;35839;48.662;13.300;2024-02-21T10:20:24;6.13;;;2.43;;
49946;SDS011;35839;48.662;13.300;2024-02-21T10:22:59;7.73;;;2.53;;
49946;SDS011;35839;48.662;13.300;2024-02-21T10:25:27;7.53;;;2.37;;
49946;SDS011;35839;48.662;13.300;2024-02-21T10:27:52;6.67;;;3.17;;
49946;SDS011;35839;48.662;13.300;2024-02-21T10:30:18;9.67;;;3.07;;
49946;SDS011;35839;48.662;13.300;2024-02-21T10:32:50;6.40;;;2.37;;
49946;SDS011;35839;48.662;13.300;2024-02-21T10:35:39;7.23;;;2.40;;
49946;SDS011;35839;48.662;13.300;2024-02-21T10:38:06;5.50;;;2.50;;
49946;SDS011;35839;48.662;13.300;2024-02-21T10:40:31;6.37;;;2.40;;
49946;SDS011;35839;48.662;13.300;2024-02-21T10:42:57;6.73;;;2.80;;
49946;SDS011;35839;48.662;13.300;2024-02-21T10:45:34;7.50;;;2.63;;
49946;SDS011;35839;48.662;13.300;2024-02-21T10:48:09;6.47;;;2.57;;
49946;SDS011;35839;48.662;13.300;2024-02-21T10:50:36;7.20;;;2.60;;
49946;SDS011;35839;48.662;13.300;2024-02-21T10:56:22;10.47;;;3.70;;
49946;SDS011;35839;48.662;13.300;2024-02-21T10:58:54;10.03;;;2.93;;
49946;SDS011;35839;48.662;13.300;2024-02-21T11:01:22;5.07;;;2.30;;
49946;SDS011;35839;48.662;13.300;2024-02-21T11:03:49;7.90;;;2.63;;
49946;SDS011;35839;48.662;13.300;2024-02-21T11:08:45;13.37;;;2.93;;
49946;SDS011;35839;48.662;13.300;2024-02-21T11:11:12;6.63;;;3.13;;
49946;SDS011;35839;48.662;13.300;2024-02-21T11:13:42;6.93;;;2.50;;
49946;SDS011;35839;48.662;13.300;2024-02-21T11:16:08;8.10;;;2.67;;
49946;SDS011;35839;48.662;13.300;2024-02-21T11:18:46;8.13;;;2.50;;
49946;SDS011;35839;48.662;13.300;2024-02-21T11:21:12;8.43;;;2.63;;
49946;SDS011;35839;48.662;13.300;2024-02-21T11:23:37;7.30;;;2.70;;
49946;SDS011;35839;48.662;13.300;2024-02-21T11:26:09;5.80;;;1.90;;
49946;SDS011;35839;48.662;13.300;2024-02-21T11:28:44;6.77;;;2.20;;
49946;SDS011;35839;48.662;13.300;2024-02-21T11:31:12;10.07;;;3.20;;
49946;SDS011;35839;48.662;13.300;2024-02-21T11:33:43;5.97;;;2.30;;
49946;SDS011;35839;48.662;13.300;2024-02-21T11:36:11;3.80;;;2.10;;
49946;SDS011;35839;48.662;13.300;2024-02-21T11:38:49;11.00;;;3.10;;
49946;SDS011;35839;48.662;13.300;2024-02-21T11:41:16;13.17;;;2.73;;
49946;SDS011;35839;48.662;13.300;2024-02-21T11:43:41;6.97;;;2.67;;
49946;SDS011;35839;48.662;13.300;2024-02-21T11:46:06;7.17;;;2.40;;
49946;SDS011;35839;48.662;13.300;2024-02-21T11:48:32;5.10;;;2.57;;
49946;SDS011;35839;48.662;13.300;2024-02-21T11:50:57;8.23;;;2.60;;
49946;SDS011;35839;48.662;13.300;2024-02-21T11:53:23;10.13;;;2.27;;
49946;SDS011;35839;48.662;13.300;2024-02-21T11:55:49;7.90;;;2.33;;
49946;SDS011;35839;48.662;13.300;2024-02-21T11:58:15;5.00;;;2.03;;
49946;SDS011;35839;48.662;13.300;2024-02-21T12:00:40;6.22;;;2.30;;
49946;SDS011;35839;48.662;13.300;2024-02-21T12:03:06;9.17;;;2.50;;
49946;SDS011;35839;48.662;13.300;2024-02-21T12:05:32;6.83;;;2.20;;
49946;SDS011;35839;48.662;13.300;2024-02-21T12:07:58;5.70;;;2.30;;
49946;SDS011;35839;48.662;13.300;2024-02-21T12:10:25;7.80;;;2.70;;
49946;SDS011;35839;48.662;13.300;2024-02-21T12:13:04;6.27;;;2.33;;
49946;SDS011;35839;48.662;13.300;2024-02-21T12:15:31;5.72;;;2.22;;
49946;SDS011;35839;48.662;13.300;2024-02-21T12:17:56;6.97;;;2.37;;
49946;SDS011;35839;48.662;13.300;2024-02-21T12:20:22;7.47;;;2.30;;
49946;SDS011;35839;48.662;13.300;2024-02-21T12:22:49;3.90;;;2.03;;
49946;SDS011;35839;48.662;13.300;2024-02-21T12:25:15;7.93;;;2.93;;
49946;SDS011;35839;48.662;13.300;2024-02-21T12:30:10;5.20;;;2.35;;
49946;SDS011;35839;48.662;13.300;2024-02-21T12:32:36;7.13;;;1.95;;
49946;SDS011;35839;48.662;13.300;2024-02-21T12:35:02;5.65;;;1.98;;
49946;SDS011;35839;48.662;13.300;2024-02-21T12:37:27;8.20;;;2.20;;
49946;SDS011;35839;48.662;13.300;2024-02-21T12:39:53;10.88;;;2.90;;
49946;SDS011;35839;48.662;13.300;2024-02-21T12:42:19;3.63;;;1.98;;
49946;SDS011;35839;48.662;13.300;2024-02-21T12:44:44;6.03;;;2.15;;
49946;SDS011;35839;48.662;13.300;2024-02-21T12:47:11;10.13;;;2.85;;
49946;SDS011;35839;48.662;13.300;2024-02-21T12:49:36;5.03;;;2.00;;
49946;SDS011;35839;48.662;13.300;2024-02-21T12:52:02;6.35;;;2.38;;
49946;SDS011;35839;48.662;13.300;2024-02-21T12:54:28;9.55;;;2.75;;
49946;SDS011;35839;48.662;13.300;2024-02-21T12:56:55;9.43;;;2.83;;
49946;SDS011;35839;48.662;13.300;2024-02-21T12:59:20;5.43;;;2.20;;
49946;SDS011;35839;48.662;13.300;2024-02-21T13:01:46;7.30;;;1.80;;
49946;SDS011;35839;48.662;13.300;2024-02-21T13:04:11;5.50;;;2.00;;
49946;SDS011;35839;48.662;13.300;2024-02-21T13:06:36;6.80;;;1.90;;
49946;SDS011;35839;48.662;13.300;2024-02-21T13:09:02;4.85;;;1.98;;
49946;SDS011;35839;48.662;13.300;2024-02-21T13:11:29;6.72;;;1.63;;
49946;SDS011;35839;48.662;13.300;2024-02-21T13:13:56;4.63;;;1.80;;
49946;SDS011;35839;48.662;13.300;2024-02-21T13:16:21;5.80;;;1.77;;
49946;SDS011;35839;48.662;13.300;2024-02-21T13:18:47;5.80;;;1.88;;
49946;SDS011;35839;48.662;13.300;2024-02-21T13:21:13;3.95;;;1.75;;
49946;SDS011;35839;48.662;13.300;2024-02-21T13:23:39;5.32;;;1.50;;
49946;SDS011;35839;48.662;13.300;2024-02-21T13:26:05;4.90;;;1.65;;
49946;SDS011;35839;48.662;13.300;2024-02-21T13:28:30;3.40;;;1.70;;
49946;SDS011;35839;48.662;13.300;2024-02-21T13:30:56;2.75;;;1.42;;
49946;SDS011;35839;48.662;13.300;2024-02-21T13:33:22;5.15;;;2.38;;
49946;SDS011;35839;48.662;13.300;2024-02-21T13:35:48;6.22;;;2.05;;
49946;SDS011;35839;48.662;13.300;2024-02-21T13:38:13;7.07;;;1.98;;
49946;SDS011;35839;48.662;13.300;2024-02-21T13:40:39;6.88;;;1.90;;
49946;SDS011;35839;48.662;13.300;2024-02-21T13:43:07;6.90;;;1.75;;
49946;SDS011;35839;48.662;13.300;2024-02-21T13:45:32;8.63;;;2.10;;
49946;SDS011;35839;48.662;13.300;2024-02-21T13:47:58;6.85;;;1.88;;
49946;SDS011;35839;48.662;13.300;2024-02-21T13:50:27;3.42;;;1.52;;
49946;SDS011;35839;48.662;13.300;2024-02-21T13:52:55;2.90;;;1.30;;
49946;SDS011;35839;48.662;13.300;2024-02-21T13:55:21;5.93;;;1.63;;
49946;SDS011;35839;48.662;13.300;2024-02-21T13:57:47;7.00;;;1.38;;
49946;SDS011;35839;48.662;13.300;2024-02-21T14:00:13;3.90;;;1.50;;
49946;SDS011;35839;48.662;13.300;2024-02-21T14:02:38;3.10;;;1.38;;
49946;SDS011;35839;48.662;13.300;2024-02-21T14:05:04;6.22;;;1.70;;
49946;SDS011;35839;48.662;13.300;2024-02-21T14:07:31;4.07;;;1.65;;
49946;SDS011;35839;48.662;13.300;2024-02-21T14:09:58;4.70;;;1.25;;
49946;SDS011;35839;48.662;13.300;2024-02-21T14:12:24;4.20;;;1.52;;
49946;SDS011;35839;48.662;13.300;2024-02-21T14:14:49;3.58;;;1.17;;
49946;SDS011;35839;48.662;13.300;2024-02-21T14:17:15;4.82;;;1.23;;
49946;SDS011;35839;48.662;13.300;2024-02-21T14:19:40;5.10;;;1.73;;
49946;SDS011;35839;48.662;13.300;2024-02-21T14:22:06;4.03;;;1.20;;
49946;SDS011;35839;48.662;13.300;2024-02-21T14:24:32;4.82;;;1.30;;
49946;SDS011;35839;48.662;13.300;2024-02-21T14:26:57;6.05;;;1.52;;
49946;SDS011;35839;48.662;13.300;2024-02-21T14:29:22;4.32;;;1.38;;
49946;SDS011;35839;48.662;13.300;2024-02-21T14:31:48;5.72;;;1.27;;
49946;SDS011;35839;48.662;13.300;2024-02-21T14:34:13;44.78;;;24.15;;